Time;durP1;ratioP1;P1;durP2;ratioP2;P2;SDS_P1;SDS_P2;PMS_P1;PMS_P2;Temp;Humidity;BMP_temperature;BMP_pressure;BME280_temperature;BME280_humidity;BME280_pressure;Samples;Min_cycle;Max_cycle;Signal;HPM_P1;HPM_P2
2022/08/25 00:01:41;;;;;;;3.70;2.28;;;;;;;;;;5028955;28;20786;-86
2022/08/25 00:04:10;;;;;;;2.70;2.50;;;;;;;;;;5019367;28;20214;-86
2022/08/25 00:06:38;;;;;;;3.88;2.50;;;;;;;;;;5032291;28;20265;-86
2022/08/25 00:09:05;;;;;;;3.17;2.30;;;;;;;;;;5018696;28;20231;-85
2022/08/25 00:11:34;;;;;;;2.80;2.60;;;;;;;;;;5012019;28;20707;-86
2022/08/25 00:14:02;;;;;;;3.20;2.55;;;;;;;;;;5012813;28;20216;-86
2022/08/25 00:16:30;;;;;;;4.47;2.75;;;;;;;;;;5011983;28;20297;-86
2022/08/25 00:19:00;;;;;;;8.27;3.58;;;;;;;;;;5013047;28;20711;-86
2022/08/25 00:21:27;;;;;;;3.00;2.60;;;;;;;;;;5012606;28;20246;-86
2022/08/25 00:23:54;;;;;;;4.13;2.17;;;;;;;;;;5028309;28;20203;-85
2022/08/25 00:26:21;;;;;;;8.00;2.72;;;;;;;;;;5012107;28;20334;-84
2022/08/25 00:28:48;;;;;;;3.05;2.75;;;;;;;;;;5032252;28;20238;-85
2022/08/25 00:31:18;;;;;;;7.88;2.97;;;;;;;;;;5031515;28;20238;-84
2022/08/25 00:33:46;;;;;;;5.05;2.83;;;;;;;;;;5012894;28;20290;-86
2022/08/25 00:36:15;;;;;;;3.83;2.90;;;;;;;;;;5011933;28;20235;-86
2022/08/25 00:38:43;;;;;;;2.97;2.67;;;;;;;;;;5031686;28;20237;-85
2022/08/25 00:41:11;;;;;;;3.05;2.83;;;;;;;;;;5031358;28;20238;-85
2022/08/25 00:43:45;;;;;;;2.67;2.47;;;;;;;;;;5016329;28;20212;-86
2022/08/25 00:46:12;;;;;;;3.90;2.80;;;;;;;;;;5011890;28;20310;-86
2022/08/25 00:48:41;;;;;;;4.38;2.88;;;;;;;;;;5020302;28;20225;-86
2022/08/25 00:51:10;;;;;;;3.00;2.80;;;;;;;;;;5012507;28;20230;-86
2022/08/25 00:53:40;;;;;;;3.50;3.03;;;;;;;;;;5015516;28;20210;-86
2022/08/25 00:56:07;;;;;;;7.93;2.88;;;;;;;;;;5031477;28;20239;-85
2022/08/25 00:58:36;;;;;;;3.20;3.00;;;;;;;;;;5022959;28;20227;-86
2022/08/25 01:01:03;;;;;;;3.42;3.15;;;;;;;;;;5011426;28;20258;-86
2022/08/25 01:03:32;;;;;;;3.85;3.13;;;;;;;;;;5012511;28;20208;-86
2022/08/25 01:05:59;;;;;;;4.03;3.15;;;;;;;;;;5025800;28;20235;-85
2022/08/25 01:08:28;;;;;;;3.80;2.92;;;;;;;;;;5029510;28;20223;-86
2022/08/25 01:10:58;;;;;;;4.00;3.25;;;;;;;;;;5031232;28;20626;-84
2022/08/25 01:13:26;;;;;;;3.85;3.10;;;;;;;;;;5032303;28;20203;-85
2022/08/25 01:15:56;;;;;;;3.92;3.10;;;;;;;;;;5031298;28;20246;-86
2022/08/25 01:18:23;;;;;;;3.47;3.05;;;;;;;;;;5034898;28;20235;-86
2022/08/25 01:20:52;;;;;;;3.53;3.22;;;;;;;;;;5016940;28;20601;-86
2022/08/25 01:23:19;;;;;;;6.53;3.00;;;;;;;;;;5016086;28;20211;-85
2022/08/25 01:25:49;;;;;;;5.05;3.00;;;;;;;;;;5015412;28;20235;-86
2022/08/25 01:28:17;;;;;;;4.45;3.10;;;;;;;;;;5033416;28;20234;-87
2022/08/25 01:30:44;;;;;;;4.05;3.40;;;;;;;;;;5016152;28;20758;-85
2022/08/25 01:33:11;;;;;;;6.03;3.30;;;;;;;;;;5015897;28;20218;-86
2022/08/25 01:35:38;;;;;;;4.10;3.70;;;;;;;;;;5015182;28;20235;-86
2022/08/25 01:38:07;;;;;;;3.72;3.42;;;;;;;;;;5017884;28;20728;-84
2022/08/25 01:40:35;;;;;;;3.93;3.53;;;;;;;;;;5015335;28;20230;-86
2022/08/25 01:43:07;;;;;;;3.45;3.15;;;;;;;;;;5020760;28;20202;-86
2022/08/25 01:45:34;;;;;;;4.63;2.97;;;;;;;;;;5030474;28;20231;-84
2022/08/25 01:48:01;;;;;;;4.33;3.27;;;;;;;;;;5029783;28;20204;-86
2022/08/25 01:50:28;;;;;;;3.50;3.20;;;;;;;;;;5016571;28;20732;-86
2022/08/25 01:52:56;;;;;;;3.20;2.90;;;;;;;;;;5015603;28;20234;-87
2022/08/25 01:55:25;;;;;;;5.25;3.17;;;;;;;;;;5025037;28;20226;-86
2022/08/25 01:57:52;;;;;;;3.90;3.20;;;;;;;;;;5023656;28;20230;-85
2022/08/25 02:00:20;;;;;;;3.05;2.85;;;;;;;;;;5028222;28;20238;-86
2022/08/25 02:02:47;;;;;;;3.83;3.33;;;;;;;;;;5029809;28;20203;-86
2022/08/25 02:05:16;;;;;;;3.20;3.00;;;;;;;;;;5042852;28;20237;-86
2022/08/25 02:07:43;;;;;;;3.90;3.50;;;;;;;;;;5025661;28;20238;-86
2022/08/25 02:10:11;;;;;;;3.60;3.17;;;;;;;;;;5040645;28;20216;-85
2022/08/25 02:12:39;;;;;;;4.73;3.60;;;;;;;;;;5029078;28;20553;-85
2022/08/25 02:15:07;;;;;;;3.93;3.20;;;;;;;;;;5020653;28;20235;-85
2022/08/25 02:17:35;;;;;;;4.57;3.50;;;;;;;;;;5049170;28;20206;-83
2022/08/25 02:20:02;;;;;;;3.60;3.30;;;;;;;;;;5058339;28;20214;-85
2022/08/25 02:22:29;;;;;;;3.40;3.10;;;;;;;;;;5038488;28;20290;-86
2022/08/25 02:24:56;;;;;;;4.13;3.73;;;;;;;;;;5025027;28;20237;-86
2022/08/25 02:27:24;;;;;;;3.43;3.13;;;;;;;;;;5015412;28;20218;-86
2022/08/25 02:29:52;;;;;;;5.70;3.40;;;;;;;;;;5013854;28;20262;-86
2022/08/25 02:32:19;;;;;;;3.83;3.40;;;;;;;;;;5029867;28;20226;-85
2022/08/25 02:34:46;;;;;;;3.53;3.23;;;;;;;;;;5014186;28;20700;-86
2022/08/25 02:37:13;;;;;;;5.03;3.50;;;;;;;;;;5014655;28;20215;-84
2022/08/25 02:39:41;;;;;;;4.47;4.07;;;;;;;;;;5027602;28;20698;-86
2022/08/25 02:42:08;;;;;;;4.27;3.63;;;;;;;;;;5029641;28;20199;-85
2022/08/25 02:44:35;;;;;;;5.50;3.47;;;;;;;;;;5033623;28;20226;-86
2022/08/25 02:47:03;;;;;;;7.47;3.20;;;;;;;;;;5018765;28;20207;-86
2022/08/25 02:49:30;;;;;;;8.33;3.73;;;;;;;;;;5020021;28;20227;-86
2022/08/25 02:51:59;;;;;;;5.93;3.27;;;;;;;;;;5019900;28;20206;-85
2022/08/25 02:54:26;;;;;;;5.93;4.10;;;;;;;;;;5036243;28;20210;-85
2022/08/25 02:56:53;;;;;;;8.87;4.10;;;;;;;;;;5029428;28;20238;-86
2022/08/25 02:59:20;;;;;;;5.10;3.73;;;;;;;;;;5029131;28;20230;-85
2022/08/25 03:01:47;;;;;;;6.30;3.63;;;;;;;;;;5031283;28;20210;-86
2022/08/25 03:04:16;;;;;;;3.67;3.37;;;;;;;;;;5025289;28;20211;-85
2022/08/25 03:06:43;;;;;;;5.97;4.00;;;;;;;;;;5013576;28;20255;-86
2022/08/25 03:09:10;;;;;;;6.07;3.63;;;;;;;;;;5033608;28;20584;-86
2022/08/25 03:11:38;;;;;;;5.70;3.70;;;;;;;;;;5028058;28;20711;-86
2022/08/25 03:14:05;;;;;;;9.37;3.77;;;;;;;;;;5020838;28;20292;-86
2022/08/25 03:16:33;;;;;;;6.83;3.60;;;;;;;;;;5033182;28;20245;-85
2022/08/25 03:19:00;;;;;;;5.10;3.87;;;;;;;;;;5033345;28;20233;-86
2022/08/25 03:21:29;;;;;;;6.83;4.00;;;;;;;;;;5032734;28;20632;-85
2022/08/25 03:23:57;;;;;;;4.47;4.07;;;;;;;;;;5021678;28;20202;-86
2022/08/25 03:29:09;;;;;;;6.20;4.20;;;;;;;;;;5060593;22;20855;-86
2022/08/25 03:31:36;;;;;;;5.47;3.87;;;;;;;;;;5052856;28;20316;-86
2022/08/25 03:34:04;;;;;;;5.90;3.70;;;;;;;;;;5053499;28;20205;-86
2022/08/25 03:36:32;;;;;;;6.93;4.30;;;;;;;;;;5052770;28;20230;-86
2022/08/25 03:38:59;;;;;;;6.87;4.40;;;;;;;;;;5062458;28;20295;-87
2022/08/25 03:41:28;;;;;;;4.20;3.80;;;;;;;;;;5077638;28;20239;-85
2022/08/25 03:43:55;;;;;;;3.93;3.63;;;;;;;;;;5072922;28;20665;-86
2022/08/25 03:46:24;;;;;;;8.37;4.63;;;;;;;;;;5072441;28;20232;-86
2022/08/25 03:48:51;;;;;;;4.73;4.23;;;;;;;;;;5073176;28;20210;-86
2022/08/25 03:51:22;;;;;;;7.10;4.23;;;;;;;;;;5072388;28;20237;-85
2022/08/25 03:53:51;;;;;;;6.97;4.37;;;;;;;;;;5072752;28;20210;-87
2022/08/25 03:56:19;;;;;;;4.80;4.13;;;;;;;;;;5072493;28;20256;-86
2022/08/25 03:58:46;;;;;;;7.20;4.03;;;;;;;;;;5072748;28;20233;-86
2022/08/25 04:01:13;;;;;;;3.97;3.67;;;;;;;;;;5072041;28;20229;-86
2022/08/25 04:03:41;;;;;;;6.07;3.73;;;;;;;;;;5072732;28;20213;-85
2022/08/25 04:06:08;;;;;;;6.57;4.47;;;;;;;;;;5072196;28;20232;-84
2022/08/25 04:08:36;;;;;;;5.50;4.03;;;;;;;;;;5072324;28;20201;-84
2022/08/25 04:11:07;;;;;;;5.60;4.27;;;;;;;;;;5071955;28;20241;-86
2022/08/25 04:13:34;;;;;;;9.07;4.30;;;;;;;;;;5072433;28;20597;-84
2022/08/25 04:16:02;;;;;;;8.87;4.23;;;;;;;;;;5072096;28;20639;-84
2022/08/25 04:18:29;;;;;;;6.73;4.13;;;;;;;;;;5072742;28;20224;-85
2022/08/25 04:21:02;;;;;;;4.97;4.07;;;;;;;;;;5073214;28;20294;-86
2022/08/25 04:23:29;;;;;;;8.93;4.63;;;;;;;;;;5072804;28;20197;-87
2022/08/25 04:25:56;;;;;;;10.40;4.47;;;;;;;;;;5071873;28;20648;-86
2022/08/25 04:28:25;;;;;;;6.97;4.00;;;;;;;;;;5073136;28;20197;-84
2022/08/25 04:30:52;;;;;;;5.23;4.50;;;;;;;;;;5071840;28;20241;-86
2022/08/25 04:33:19;;;;;;;6.30;4.37;;;;;;;;;;5078488;28;20205;-86
2022/08/25 04:35:48;;;;;;;8.40;4.50;;;;;;;;;;5076337;28;20233;-84
2022/08/25 04:38:15;;;;;;;6.17;4.87;;;;;;;;;;5076462;28;20578;-86
2022/08/25 04:40:42;;;;;;;5.10;4.17;;;;;;;;;;5075567;28;20244;-82
2022/08/25 04:43:09;;;;;;;7.73;4.83;;;;;;;;;;5076940;28;20201;-83
2022/08/25 04:45:38;;;;;;;6.20;4.60;;;;;;;;;;5073913;28;20233;-82
2022/08/25 04:48:06;;;;;;;4.60;4.20;;;;;;;;;;5075220;28;20213;-82
2022/08/25 04:50:33;;;;;;;11.07;5.40;;;;;;;;;;5075795;28;20495;-79
2022/08/25 04:53:00;;;;;;;5.67;4.90;;;;;;;;;;5079041;28;20205;-78
2022/08/25 04:55:27;;;;;;;9.30;4.90;;;;;;;;;;5076560;28;20278;-80
2022/08/25 04:57:54;;;;;;;6.27;4.70;;;;;;;;;;5077202;28;20266;-78
2022/08/25 05:00:21;;;;;;;8.93;4.70;;;;;;;;;;5076757;28;20233;-79
2022/08/25 05:02:50;;;;;;;7.40;4.93;;;;;;;;;;5077472;28;20211;-78
2022/08/25 05:05:17;;;;;;;7.70;4.60;;;;;;;;;;5076644;28;20233;-78
2022/08/25 05:07:44;;;;;;;11.17;5.17;;;;;;;;;;5076750;28;20212;-78
2022/08/25 05:10:19;;;;;;;9.77;4.77;;;;;;;;;;5076766;28;20232;-77
2022/08/25 05:12:46;;;;;;;13.60;6.13;;;;;;;;;;5077824;28;20197;-80
2022/08/25 05:17:56;;;;;;;9.10;4.90;;;;;;;;;;5066519;28;20201;-79
2022/08/25 05:20:23;;;;;;;7.20;4.53;;;;;;;;;;5077493;28;20244;-79
2022/08/25 05:22:51;;;;;;;7.57;5.20;;;;;;;;;;5076631;28;20630;-78
2022/08/25 05:25:18;;;;;;;6.20;5.60;;;;;;;;;;5075711;28;20233;-79
2022/08/25 05:27:45;;;;;;;7.87;5.07;;;;;;;;;;5076056;28;20210;-79
2022/08/25 05:30:13;;;;;;;6.83;5.70;;;;;;;;;;5075924;28;20229;-80
2022/08/25 05:32:40;;;;;;;7.00;5.30;;;;;;;;;;5076460;28;20201;-78
2022/08/25 05:35:08;;;;;;;8.53;5.73;;;;;;;;;;5076127;28;20310;-79
2022/08/25 05:37:36;;;;;;;6.10;5.30;;;;;;;;;;5076263;28;20216;-78
2022/08/25 05:40:04;;;;;;;7.83;5.77;;;;;;;;;;5076026;28;20234;-79
2022/08/25 05:42:31;;;;;;;9.70;5.53;;;;;;;;;;5077843;28;20208;-83
2022/08/25 05:45:04;;;;;;;5.80;5.30;;;;;;;;;;5075299;28;20243;-80
2022/08/25 05:47:31;;;;;;;8.77;6.10;;;;;;;;;;5076401;28;20641;-80
2022/08/25 05:49:58;;;;;;;10.47;6.00;;;;;;;;;;5074415;28;20263;-80
2022/08/25 05:52:27;;;;;;;8.60;6.13;;;;;;;;;;5076147;28;20212;-83
2022/08/25 05:54:54;;;;;;;12.07;6.70;;;;;;;;;;5077427;28;20236;-79
2022/08/25 05:57:21;;;;;;;9.50;6.40;;;;;;;;;;5075228;28;20220;-80
2022/08/25 05:59:48;;;;;;;8.73;6.53;;;;;;;;;;5074285;28;20607;-80
2022/08/25 06:05:16;;;;;;;9.50;6.77;;;;;;;;;;5015633;28;20230;-82
2022/08/25 06:07:44;;;;;;;9.27;7.13;;;;;;;;;;5018518;28;20218;-82
2022/08/25 06:10:12;;;;;;;11.87;7.37;;;;;;;;;;5046742;28;20237;-83
2022/08/25 06:12:40;;;;;;;10.87;7.87;;;;;;;;;;5062032;28;20213;-82
2022/08/25 06:15:07;;;;;;;10.93;7.37;;;;;;;;;;5059140;28;20230;-83
2022/08/25 06:17:39;;;;;;;13.80;7.67;;;;;;;;;;5060403;28;20206;-82
2022/08/25 06:20:09;;;;;;;10.48;8.05;;;;;;;;;;5059548;28;20230;-82
2022/08/25 06:22:36;;;;;;;8.77;7.40;;;;;;;;;;5059188;28;20206;-83
2022/08/25 06:25:05;;;;;;;13.87;7.73;;;;;;;;;;5040412;28;20230;-82
2022/08/25 06:27:32;;;;;;;8.67;7.63;;;;;;;;;;5038102;28;20206;-83
2022/08/25 06:30:02;;;;;;;11.43;7.78;;;;;;;;;;5040571;28;20230;-83
2022/08/25 06:32:31;;;;;;;11.85;7.28;;;;;;;;;;5044593;28;20263;-85
2022/08/25 06:34:58;;;;;;;10.75;7.82;;;;;;;;;;5037907;28;20230;-83
2022/08/25 06:37:25;;;;;;;13.73;7.67;;;;;;;;;;5036114;28;20214;-83
2022/08/25 06:39:52;;;;;;;13.77;8.00;;;;;;;;;;5035850;28;20239;-83
2022/08/25 06:42:21;;;;;;;9.68;8.35;;;;;;;;;;5036985;28;20237;-83
2022/08/25 06:44:48;;;;;;;11.23;8.40;;;;;;;;;;5034412;28;20226;-83
2022/08/25 06:47:15;;;;;;;8.90;7.70;;;;;;;;;;5034712;28;20214;-83
2022/08/25 06:49:42;;;;;;;10.75;8.80;;;;;;;;;;5034343;28;20241;-82
2022/08/25 06:52:10;;;;;;;9.68;7.75;;;;;;;;;;5034370;28;20274;-83
2022/08/25 06:54:37;;;;;;;11.00;8.55;;;;;;;;;;5034528;28;20203;-83
2022/08/25 06:57:05;;;;;;;12.63;8.40;;;;;;;;;;5036106;28;20260;-82
2022/08/25 06:59:33;;;;;;;11.15;8.48;;;;;;;;;;5037174;28;20223;-83
2022/08/25 07:02:02;;;;;;;12.30;7.65;;;;;;;;;;5054935;28;20214;-79
2022/08/25 07:04:29;;;;;;;11.95;7.57;;;;;;;;;;5054743;28;20325;-83
2022/08/25 07:06:57;;;;;;;9.88;7.43;;;;;;;;;;5056384;28;20202;-83
2022/08/25 07:09:24;;;;;;;10.30;8.45;;;;;;;;;;5054351;28;20229;-83
2022/08/25 07:11:51;;;;;;;11.20;7.22;;;;;;;;;;5048945;28;20209;-83
2022/08/25 07:14:18;;;;;;;7.00;6.25;;;;;;;;;;5054420;28;20225;-83
2022/08/25 07:16:47;;;;;;;8.60;6.90;;;;;;;;;;5061399;28;20232;-83
2022/08/25 07:19:14;;;;;;;7.07;6.30;;;;;;;;;;5062404;28;20260;-83
2022/08/25 07:21:44;;;;;;;10.35;6.40;;;;;;;;;;5067312;28;20229;-83
2022/08/25 07:24:13;;;;;;;9.75;6.57;;;;;;;;;;5054387;28;20210;-83
2022/08/25 07:26:42;;;;;;;10.63;5.43;;;;;;;;;;5047848;28;20238;-83
2022/08/25 07:29:10;;;;;;;8.63;5.53;;;;;;;;;;5048988;28;20225;-83
2022/08/25 07:31:37;;;;;;;8.55;5.75;;;;;;;;;;5072329;28;20237;-84
2022/08/25 07:36:50;;;;;;;6.25;5.65;;;;;;;;;;5072887;28;20254;-83
2022/08/25 07:39:17;;;;;;;7.75;6.18;;;;;;;;;;5073580;28;20237;-84
2022/08/25 07:41:45;;;;;;;7.80;5.93;;;;;;;;;;5093137;28;20582;-83
2022/08/25 07:44:12;;;;;;;7.45;5.85;;;;;;;;;;5093646;28;20257;-83
2022/08/25 07:46:40;;;;;;;7.50;6.00;;;;;;;;;;5092768;28;20239;-83
2022/08/25 07:49:09;;;;;;;6.63;5.90;;;;;;;;;;5093680;28;20229;-83
2022/08/25 07:51:37;;;;;;;6.68;6.07;;;;;;;;;;5092599;28;20243;-83
2022/08/25 07:54:05;;;;;;;7.78;5.97;;;;;;;;;;5093518;28;20578;-83
2022/08/25 07:56:32;;;;;;;8.20;5.57;;;;;;;;;;5092525;28;20239;-84
2022/08/25 07:58:59;;;;;;;7.25;5.60;;;;;;;;;;5093120;28;20224;-84
2022/08/25 08:01:26;;;;;;;7.60;6.00;;;;;;;;;;5103085;28;20236;-85
2022/08/25 08:03:53;;;;;;;9.55;6.30;;;;;;;;;;5095757;28;20660;-84
2022/08/25 08:06:23;;;;;;;6.18;5.40;;;;;;;;;;5078803;28;20267;-84
2022/08/25 08:08:51;;;;;;;5.90;5.40;;;;;;;;;;5073342;28;20220;-84
2022/08/25 08:11:19;;;;;;;7.68;5.88;;;;;;;;;;5072647;28;20628;-83
2022/08/25 08:13:47;;;;;;;6.28;5.68;;;;;;;;;;5073860;28;20193;-83
2022/08/25 08:16:16;;;;;;;6.25;5.65;;;;;;;;;;5073314;28;20268;-85
2022/08/25 08:18:44;;;;;;;6.30;5.32;;;;;;;;;;5075215;28;20650;-83
2022/08/25 08:21:12;;;;;;;6.38;5.55;;;;;;;;;;5072990;28;20244;-84
2022/08/25 08:23:41;;;;;;;5.75;5.25;;;;;;;;;;5077579;28;20872;-83
2022/08/25 08:26:08;;;;;;;6.57;5.07;;;;;;;;;;5052649;28;20718;-83
2022/08/25 08:28:35;;;;;;;8.27;5.70;;;;;;;;;;5052185;28;20549;-83
2022/08/25 08:31:02;;;;;;;5.68;5.18;;;;;;;;;;5051067;28;20259;-83
2022/08/25 08:33:30;;;;;;;6.05;5.20;;;;;;;;;;5052374;28;20580;-83
2022/08/25 08:35:58;;;;;;;7.43;5.15;;;;;;;;;;5054366;28;20244;-83
2022/08/25 08:38:25;;;;;;;5.47;4.97;;;;;;;;;;5054126;28;20218;-83
2022/08/25 08:43:41;;;;;;;5.68;4.88;;;;;;;;;;5065418;28;20208;-82
2022/08/25 08:46:08;;;;;;;5.63;5.13;;;;;;;;;;5052706;28;20249;-87
2022/08/25 08:48:50;;;;;;;5.80;5.30;;;;;;;;;;5065121;28;20209;-87
2022/08/25 08:51:20;;;;;;;7.25;4.90;;;;;;;;;;5068852;28;20557;-85
2022/08/25 08:53:51;;;;;;;5.70;4.97;;;;;;;;;;5073321;28;20224;-87
2022/08/25 08:56:21;;;;;;;5.47;4.97;;;;;;;;;;5073692;28;20244;-88
2022/08/25 08:58:49;;;;;;;5.75;5.13;;;;;;;;;;5073943;28;20209;-87
2022/08/25 09:01:18;;;;;;;5.15;4.70;;;;;;;;;;5071761;28;20241;-87
2022/08/25 09:03:48;;;;;;;6.20;5.13;;;;;;;;;;5072202;28;20661;-87
2022/08/25 09:06:23;;;;;;;5.88;4.70;;;;;;;;;;5071453;28;20237;-87
2022/08/25 09:08:50;;;;;;;5.28;4.78;;;;;;;;;;5072005;28;20189;-87
2022/08/25 09:11:24;;;;;;;5.70;5.03;;;;;;;;;;5073077;28;20240;-89
2022/08/25 09:14:08;;;;;;;5.97;5.32;;;;;;;;;;5072984;28;20273;-88
2022/08/25 09:16:56;;;;;;;5.15;4.68;;;;;;;;;;5071524;28;20235;-88
2022/08/25 09:19:46;;;;;;;7.53;4.60;;;;;;;;;;5071011;28;20221;-88
2022/08/25 09:22:19;;;;;;;5.50;4.85;;;;;;;;;;5071895;28;20650;-88
2022/08/25 09:24:52;;;;;;;5.07;4.65;;;;;;;;;;5071413;28;20233;-89
2022/08/25 09:27:25;;;;;;;5.07;4.60;;;;;;;;;;5072007;28;20193;-88
2022/08/25 09:30:00;;;;;;;7.28;4.82;;;;;;;;;;5071048;28;20239;-87
2022/08/25 09:32:28;;;;;;;5.10;4.70;;;;;;;;;;5071648;28;20218;-88
2022/08/25 09:34:58;;;;;;;6.18;4.78;;;;;;;;;;5066774;28;20237;-90
2022/08/25 09:37:25;;;;;;;7.50;4.68;;;;;;;;;;5052051;28;20206;-88
2022/08/25 09:39:52;;;;;;;4.80;4.15;;;;;;;;;;5055409;28;20663;-87
2022/08/25 09:42:19;;;;;;;6.55;4.80;;;;;;;;;;5055624;28;20304;-90
2022/08/25 09:44:48;;;;;;;5.40;4.75;;;;;;;;;;5055488;28;20230;-89
2022/08/25 09:47:20;;;;;;;4.88;4.38;;;;;;;;;;5055021;28;20202;-89
2022/08/25 09:49:49;;;;;;;5.25;4.85;;;;;;;;;;5054806;28;20261;-89
2022/08/25 09:52:22;;;;;;;5.15;4.63;;;;;;;;;;5055713;28;20202;-88
2022/08/25 09:54:50;;;;;;;4.97;4.57;;;;;;;;;;5052410;28;20596;-88
2022/08/25 09:57:34;;;;;;;5.68;4.32;;;;;;;;;;5047678;28;20206;-88
2022/08/25 10:00:13;;;;;;;5.05;4.63;;;;;;;;;;5055099;28;20284;-88
2022/08/25 10:02:41;;;;;;;4.82;4.30;;;;;;;;;;5052755;28;20213;-88
2022/08/25 10:05:19;;;;;;;4.53;4.05;;;;;;;;;;5069870;28;20240;-88
2022/08/25 10:07:49;;;;;;;5.35;4.55;;;;;;;;;;5066157;28;20193;-88
2022/08/25 10:10:19;;;;;;;5.10;4.57;;;;;;;;;;5056659;28;20256;-88
2022/08/25 10:12:47;;;;;;;5.60;4.13;;;;;;;;;;5054588;28;20585;-88
2022/08/25 10:15:19;;;;;;;5.13;4.35;;;;;;;;;;5069655;28;20229;-88
2022/08/25 10:17:46;;;;;;;5.57;4.75;;;;;;;;;;5054124;28;20206;-87
2022/08/25 10:20:16;;;;;;;6.32;4.82;;;;;;;;;;5070020;28;20595;-86
2022/08/25 10:22:44;;;;;;;4.60;4.20;;;;;;;;;;5073715;28;20205;-88
2022/08/25 10:25:13;;;;;;;5.00;3.97;;;;;;;;;;5066238;28;20690;-86
2022/08/25 10:27:44;;;;;;;6.30;4.70;;;;;;;;;;5054104;28;20220;-87
2022/08/25 10:30:15;;;;;;;4.25;3.85;;;;;;;;;;5053087;28;20241;-89
2022/08/25 10:32:55;;;;;;;4.72;4.00;;;;;;;;;;5054739;28;20209;-89
2022/08/25 10:35:24;;;;;;;4.30;3.90;;;;;;;;;;5055133;28;20603;-89
2022/08/25 10:38:01;;;;;;;5.97;3.92;;;;;;;;;;5056232;28;20229;-88
2022/08/25 10:40:31;;;;;;;4.65;4.22;;;;;;;;;;5054190;28;20236;-89
2022/08/25 10:43:06;;;;;;;5.00;3.80;;;;;;;;;;5054829;28;20213;-89
2022/08/25 10:45:41;;;;;;;4.22;3.78;;;;;;;;;;5054831;28;20616;-89
2022/08/25 10:48:31;;;;;;;3.78;3.35;;;;;;;;;;5055318;28;20681;-90
2022/08/25 10:51:01;;;;;;;3.53;3.22;;;;;;;;;;5054458;28;20233;-90
2022/08/25 10:53:29;;;;;;;3.47;3.20;;;;;;;;;;5054232;28;20205;-89
2022/08/25 10:56:03;;;;;;;3.65;3.35;;;;;;;;;;5054564;28;20264;-89
2022/08/25 10:58:47;;;;;;;3.20;2.90;;;;;;;;;;5054850;28;20205;-89
2022/08/25 11:01:20;;;;;;;3.42;3.13;;;;;;;;;;5053896;28;20229;-89
2022/08/25 11:03:51;;;;;;;3.55;2.67;;;;;;;;;;5048903;28;20209;-90
2022/08/25 11:06:21;;;;;;;2.85;2.65;;;;;;;;;;5039002;28;20225;-90
2022/08/25 11:08:50;;;;;;;3.42;3.13;;;;;;;;;;5054907;28;20205;-89
2022/08/25 11:11:23;;;;;;;3.00;2.80;;;;;;;;;;5054440;28;20229;-89
2022/08/25 11:13:53;;;;;;;3.40;3.10;;;;;;;;;;5054805;28;20208;-90
2022/08/25 11:16:22;;;;;;;3.53;3.10;;;;;;;;;;5053565;28;20240;-90
2022/08/25 11:18:56;;;;;;;3.42;3.00;;;;;;;;;;5053865;28;20210;-90
2022/08/25 11:21:26;;;;;;;3.95;2.90;;;;;;;;;;5052847;28;20602;-90
2022/08/25 11:23:56;;;;;;;3.50;3.20;;;;;;;;;;5067544;28;20197;-89
2022/08/25 11:26:28;;;;;;;3.30;2.97;;;;;;;;;;5065349;28;20228;-89
2022/08/25 11:29:00;;;;;;;4.13;3.22;;;;;;;;;;5068669;28;20315;-89
2022/08/25 11:31:27;;;;;;;3.50;3.20;;;;;;;;;;5057868;28;20225;-90
2022/08/25 11:33:56;;;;;;;3.15;2.95;;;;;;;;;;5068483;28;20197;-90
2022/08/25 11:36:26;;;;;;;5.35;3.10;;;;;;;;;;5073555;28;20241;-90
2022/08/25 11:38:58;;;;;;;6.43;3.20;;;;;;;;;;5073413;28;20208;-90
2022/08/25 11:41:27;;;;;;;3.45;3.15;;;;;;;;;;5072978;28;20612;-90
2022/08/25 11:44:06;;;;;;;3.13;2.83;;;;;;;;;;5067387;28;20225;-90
2022/08/25 11:46:42;;;;;;;3.00;2.80;;;;;;;;;;5063643;28;20689;-89
2022/08/25 11:49:21;;;;;;;2.92;2.72;;;;;;;;;;5074155;28;20228;-90
2022/08/25 11:51:49;;;;;;;3.60;2.80;;;;;;;;;;5072889;28;20291;-90
2022/08/25 11:54:19;;;;;;;2.60;2.40;;;;;;;;;;5073025;28;20205;-89
2022/08/25 11:56:52;;;;;;;3.28;2.92;;;;;;;;;;5072694;28;20251;-90
2022/08/25 11:59:34;;;;;;;3.90;3.60;;;;;;;;;;5072602;28;20225;-89
2022/08/25 12:02:01;;;;;;;2.97;2.78;;;;;;;;;;5071794;28;20228;-89
2022/08/25 12:04:34;;;;;;;2.83;2.58;;;;;;;;;;5072313;28;20229;-90
2022/08/25 12:07:18;;;;;;;2.92;2.70;;;;;;;;;;5073658;28;20205;-89
2022/08/25 12:10:04;;;;;;;3.00;2.80;;;;;;;;;;5072113;28;20233;-89
2022/08/25 12:12:33;;;;;;;3.58;3.28;;;;;;;;;;5072617;28;20209;-90
2022/08/25 12:15:20;;;;;;;3.17;2.95;;;;;;;;;;5072573;28;20232;-90
2022/08/25 12:18:07;;;;;;;3.33;3.03;;;;;;;;;;5073135;28;20297;-90
2022/08/25 12:20:55;;;;;;;3.20;2.78;;;;;;;;;;5058578;28;20606;-90
2022/08/25 12:23:29;;;;;;;5.63;2.90;;;;;;;;;;5052290;28;20639;-90
2022/08/25 12:25:59;;;;;;;2.90;2.70;;;;;;;;;;5066680;28;20240;-90
2022/08/25 12:28:36;;;;;;;3.40;3.10;;;;;;;;;;5072702;28;20208;-90
2022/08/25 12:31:08;;;;;;;3.65;2.70;;;;;;;;;;5072631;28;20228;-90
2022/08/25 12:33:41;;;;;;;4.07;3.00;;;;;;;;;;5072214;28;20204;-90
2022/08/25 12:36:10;;;;;;;3.00;2.80;;;;;;;;;;5072506;28;20607;-90
2022/08/25 12:38:42;;;;;;;3.95;2.67;;;;;;;;;;5071750;28;20200;-90
2022/08/25 12:41:11;;;;;;;3.10;2.80;;;;;;;;;;5071491;28;20236;-90
2022/08/25 12:43:39;;;;;;;3.00;2.80;;;;;;;;;;5072297;28;20665;-90
2022/08/25 12:46:26;;;;;;;4.22;3.10;;;;;;;;;;5055613;28;20662;-90
2022/08/25 12:48:57;;;;;;;3.03;2.80;;;;;;;;;;5052599;28;20266;-90
2022/08/25 12:51:25;;;;;;;3.30;3.00;;;;;;;;;;5050993;28;20704;-90
2022/08/25 12:53:56;;;;;;;3.47;2.92;;;;;;;;;;5049558;28;20204;-90
2022/08/25 12:56:29;;;;;;;3.22;3.00;;;;;;;;;;5051827;28;20313;-90
2022/08/25 12:59:01;;;;;;;2.90;2.70;;;;;;;;;;5053767;28;20300;-90
2022/08/25 13:01:41;;;;;;;3.15;2.95;;;;;;;;;;5053384;28;20251;-90
2022/08/25 13:04:18;;;;;;;2.75;2.55;;;;;;;;;;5054041;28;20201;-88
2022/08/25 13:07:01;;;;;;;3.00;2.78;;;;;;;;;;5052855;28;20208;-88
2022/08/25 13:09:57;;;;;;;3.63;3.33;;;;;;;;;;5053506;28;20240;-88
2022/08/25 13:12:27;;;;;;;3.17;2.88;;;;;;;;;;5055904;28;20205;-88
2022/08/25 13:14:59;;;;;;;2.55;2.35;;;;;;;;;;5059930;28;20232;-88
2022/08/25 13:17:28;;;;;;;3.00;2.80;;;;;;;;;;5058052;28;20279;-88
2022/08/25 13:20:10;;;;;;;3.00;2.80;;;;;;;;;;5055594;28;20229;-88
2022/08/25 13:22:37;;;;;;;3.67;3.05;;;;;;;;;;5055479;28;20557;-88
2022/08/25 13:25:06;;;;;;;6.80;2.80;;;;;;;;;;5055516;28;20240;-89
2022/08/25 13:27:34;;;;;;;5.50;2.80;;;;;;;;;;5055702;28;20216;-87
2022/08/25 13:30:01;;;;;;;2.90;2.70;;;;;;;;;;5055440;28;20720;-88
2022/08/25 13:32:29;;;;;;;3.53;2.85;;;;;;;;;;5055678;28;20202;-88
2022/08/25 13:35:08;;;;;;;5.82;2.83;;;;;;;;;;5054968;28;20347;-88
2022/08/25 13:37:35;;;;;;;4.13;2.63;;;;;;;;;;5055405;28;20200;-88
2022/08/25 13:40:11;;;;;;;3.60;2.47;;;;;;;;;;5054938;28;20237;-88
2022/08/25 13:42:39;;;;;;;4.88;2.80;;;;;;;;;;5055711;28;20225;-88
2022/08/25 13:45:07;;;;;;;4.35;3.00;;;;;;;;;;5055768;28;20310;-88
2022/08/25 13:47:35;;;;;;;2.92;2.72;;;;;;;;;;5057723;28;20472;-88
2022/08/25 13:50:16;;;;;;;2.80;2.60;;;;;;;;;;5058311;28;20237;-87
2022/08/25 13:52:47;;;;;;;2.90;2.70;;;;;;;;;;5058688;28;20201;-87
2022/08/25 13:55:21;;;;;;;2.80;2.60;;;;;;;;;;5058615;28;20236;-87
2022/08/25 13:57:48;;;;;;;2.80;2.60;;;;;;;;;;5059286;28;20215;-88
2022/08/25 14:00:25;;;;;;;3.65;3.10;;;;;;;;;;5058200;28;20233;-87
2022/08/25 14:02:54;;;;;;;2.80;2.60;;;;;;;;;;5059718;28;20225;-87
2022/08/25 14:05:31;;;;;;;3.67;2.92;;;;;;;;;;5057578;28;20236;-89
2022/08/25 14:07:59;;;;;;;5.85;3.45;;;;;;;;;;5056446;28;20553;-88
2022/08/25 14:10:37;;;;;;;2.92;2.50;;;;;;;;;;5054970;28;20241;-89
2022/08/25 14:13:09;;;;;;;3.30;2.75;;;;;;;;;;5055256;28;20249;-89
2022/08/25 14:15:37;;;;;;;2.80;2.55;;;;;;;;;;5054160;28;20240;-88
2022/08/25 14:18:06;;;;;;;2.40;2.20;;;;;;;;;;5054975;28;20549;-89
2022/08/25 14:20:34;;;;;;;2.70;2.50;;;;;;;;;;5054006;28;20245;-89
2022/08/25 14:23:03;;;;;;;2.42;2.22;;;;;;;;;;5055251;28;20237;-87
2022/08/25 14:25:31;;;;;;;2.75;2.50;;;;;;;;;;5063990;28;20239;-89
2022/08/25 14:28:00;;;;;;;2.50;2.33;;;;;;;;;;5074830;28;20692;-89
2022/08/25 14:30:28;;;;;;;2.38;2.17;;;;;;;;;;5074084;28;20343;-88
2022/08/25 14:32:55;;;;;;;2.60;2.40;;;;;;;;;;5075913;28;20200;-90
2022/08/25 14:35:22;;;;;;;3.58;2.53;;;;;;;;;;5075846;28;20707;-89
2022/08/25 14:37:50;;;;;;;2.53;2.33;;;;;;;;;;5074935;28;20204;-89
2022/08/25 14:40:18;;;;;;;2.80;2.50;;;;;;;;;;5068991;28;20248;-87
2022/08/25 14:42:46;;;;;;;3.00;2.63;;;;;;;;;;5062675;28;20233;-85
2022/08/25 14:45:16;;;;;;;3.75;2.50;;;;;;;;;;5064102;28;20295;-88
2022/08/25 14:47:43;;;;;;;2.75;2.58;;;;;;;;;;5043289;28;20221;-87
2022/08/25 14:50:10;;;;;;;3.05;2.72;;;;;;;;;;5038178;28;20238;-87
2022/08/25 14:52:37;;;;;;;3.60;2.95;;;;;;;;;;5037246;28;20681;-89
2022/08/25 14:55:05;;;;;;;3.60;3.30;;;;;;;;;;5037041;28;20237;-87
2022/08/25 14:57:32;;;;;;;4.38;2.90;;;;;;;;;;5050688;28;20692;-87
2022/08/25 14:59:59;;;;;;;3.03;2.80;;;;;;;;;;5048165;28;20238;-86
2022/08/25 15:02:30;;;;;;;3.65;3.13;;;;;;;;;;5065013;28;20228;-88
2022/08/25 15:04:58;;;;;;;3.10;2.90;;;;;;;;;;5075716;28;20206;-89
2022/08/25 15:10:11;;;;;;;2.65;2.38;;;;;;;;;;5072989;28;20256;-89
2022/08/25 15:12:38;;;;;;;2.83;2.63;;;;;;;;;;5056524;28;20205;-88
2022/08/25 15:15:05;;;;;;;3.10;2.90;;;;;;;;;;5053189;28;20256;-89